sensor_id;sensor_type;location;lat;lon;timestamp;pressure;altitude;pressure_sealevel;temperature;humidity
40954;BME280;26686;50.130;8.710;2024-02-23T00:03:47;97763.00;;;9.30;78.68
40954;BME280;26686;50.130;8.710;2024-02-23T00:08:48;97774.94;;;9.26;82.44
40954;BME280;26686;50.130;8.710;2024-02-23T00:13:50;97776.38;;;9.13;82.77
40954;BME280;26686;50.130;8.710;2024-02-23T00:18:51;97783.34;;;9.14;81.00
40954;BME280;26686;50.130;8.710;2024-02-23T00:23:53;97786.00;;;9.06;79.85
40954;BME280;26686;50.130;8.710;2024-02-23T00:28:55;97783.28;;;8.91;77.95
40954;BME280;26686;50.130;8.710;2024-02-23T00:33:56;97819.91;;;8.96;77.57
40954;BME280;26686;50.130;8.710;2024-02-23T00:38:58;97849.41;;;9.01;76.74
40954;BME280;26686;50.130;8.710;2024-02-23T00:43:59;97831.38;;;8.88;75.61
40954;BME280;26686;50.130;8.710;2024-02-23T00:49:01;97844.47;;;8.90;74.67
40954;BME280;26686;50.130;8.710;2024-02-23T00:54:05;97852.13;;;8.76;72.35
40954;BME280;26686;50.130;8.710;2024-02-23T00:59:07;97861.13;;;8.75;73.16
40954;BME280;26686;50.130;8.710;2024-02-23T01:04:08;97873.06;;;8.63;73.03
40954;BME280;26686;50.130;8.710;2024-02-23T01:09:10;97863.13;;;8.40;74.39
40954;BME280;26686;50.130;8.710;2024-02-23T01:14:12;97871.09;;;8.57;74.27
40954;BME280;26686;50.130;8.710;2024-02-23T01:19:15;97894.47;;;8.53;74.76
40954;BME280;26686;50.130;8.710;2024-02-23T01:24:17;97913.50;;;8.57;74.62
40954;BME280;26686;50.130;8.710;2024-02-23T01:29:19;97919.97;;;8.62;75.75
40954;BME280;26686;50.130;8.710;2024-02-23T01:34:22;97926.47;;;8.52;76.38
40954;BME280;26686;50.130;8.710;2024-02-23T01:39:24;97949.31;;;8.53;76.54
40954;BME280;26686;50.130;8.710;2024-02-23T01:44:25;97945.03;;;8.52;76.44
40954;BME280;26686;50.130;8.710;2024-02-23T01:49:27;97961.41;;;8.63;76.36
40954;BME280;26686;50.130;8.710;2024-02-23T01:54:33;97965.72;;;8.48;76.81
40954;BME280;26686;50.130;8.710;2024-02-23T01:59:36;97995.34;;;8.35;74.84
40954;BME280;26686;50.130;8.710;2024-02-23T02:04:39;98015.38;;;8.29;75.86
40954;BME280;26686;50.130;8.710;2024-02-23T02:09:40;97991.50;;;8.13;76.15
40954;BME280;26686;50.130;8.710;2024-02-23T02:14:44;98028.81;;;8.20;75.23
40954;BME280;26686;50.130;8.710;2024-02-23T02:19:48;98042.53;;;8.15;72.97
40954;BME280;26686;50.130;8.710;2024-02-23T02:24:49;98052.09;;;8.00;72.62
40954;BME280;26686;50.130;8.710;2024-02-23T02:29:51;98054.25;;;7.96;72.50
40954;BME280;26686;50.130;8.710;2024-02-23T02:34:52;98049.72;;;7.80;71.12
40954;BME280;26686;50.130;8.710;2024-02-23T02:39:54;98064.78;;;7.79;71.27
40954;BME280;26686;50.130;8.710;2024-02-23T02:44:55;98045.53;;;7.77;70.73
40954;BME280;26686;50.130;8.710;2024-02-23T02:49:57;98059.47;;;7.79;71.64
40954;BME280;26686;50.130;8.710;2024-02-23T02:54:58;98070.41;;;7.76;70.22
40954;BME280;26686;50.130;8.710;2024-02-23T03:00:00;98077.53;;;7.84;71.64
40954;BME280;26686;50.130;8.710;2024-02-23T03:05:02;98076.41;;;7.87;71.22
40954;BME280;26686;50.130;8.710;2024-02-23T03:10:04;98073.28;;;7.91;71.81
40954;BME280;26686;50.130;8.710;2024-02-23T03:15:06;98090.31;;;7.89;72.34
40954;BME280;26686;50.130;8.710;2024-02-23T03:20:07;98091.91;;;7.82;72.95
40954;BME280;26686;50.130;8.710;2024-02-23T03:25:12;98065.34;;;7.57;73.58
40954;BME280;26686;50.130;8.710;2024-02-23T03:30:13;98099.16;;;7.71;73.25
40954;BME280;26686;50.130;8.710;2024-02-23T03:35:15;98105.47;;;7.70;73.42
40954;BME280;26686;50.130;8.710;2024-02-23T03:40:17;98110.22;;;7.67;72.65
40954;BME280;26686;50.130;8.710;2024-02-23T03:45:20;98116.53;;;7.66;73.06
40954;BME280;26686;50.130;8.710;2024-02-23T03:50:21;98106.59;;;7.41;74.08
40954;BME280;26686;50.130;8.710;2024-02-23T03:55:24;98120.56;;;7.52;74.33
40954;BME280;26686;50.130;8.710;2024-02-23T04:00:26;98122.63;;;7.40;75.47
40954;BME280;26686;50.130;8.710;2024-02-23T04:05:27;98121.47;;;7.34;75.46
40954;BME280;26686;50.130;8.710;2024-02-23T04:10:29;98118.19;;;7.40;76.57
40954;BME280;26686;50.130;8.710;2024-02-23T04:15:30;98125.34;;;7.48;76.64
40954;BME280;26686;50.130;8.710;2024-02-23T04:20:31;98128.72;;;7.32;76.15
40954;BME280;26686;50.130;8.710;2024-02-23T04:25:34;98137.66;;;7.31;76.91
40954;BME280;26686;50.130;8.710;2024-02-23T04:30:36;98114.22;;;7.18;77.14
40954;BME280;26686;50.130;8.710;2024-02-23T04:35:37;98121.69;;;7.23;77.18
40954;BME280;26686;50.130;8.710;2024-02-23T04:40:39;98128.34;;;7.27;77.18
40954;BME280;26686;50.130;8.710;2024-02-23T04:45:40;98126.94;;;7.15;78.31
40954;BME280;26686;50.130;8.710;2024-02-23T04:50:42;98128.00;;;7.04;78.37
40954;BME280;26686;50.130;8.710;2024-02-23T04:55:43;98128.47;;;6.81;78.92
40954;BME280;26686;50.130;8.710;2024-02-23T05:00:46;98119.56;;;6.82;79.47
40954;BME280;26686;50.130;8.710;2024-02-23T05:05:47;98115.63;;;6.68;79.37
40954;BME280;26686;50.130;8.710;2024-02-23T05:10:50;98124.84;;;6.46;80.35
40954;BME280;26686;50.130;8.710;2024-02-23T05:15:55;98125.34;;;6.50;80.94
40954;BME280;26686;50.130;8.710;2024-02-23T05:20:57;98119.53;;;6.46;81.30
40954;BME280;26686;50.130;8.710;2024-02-23T05:25:58;98133.22;;;6.42;80.81
40954;BME280;26686;50.130;8.710;2024-02-23T05:31:02;98139.56;;;6.49;81.25
40954;BME280;26686;50.130;8.710;2024-02-23T05:36:05;98134.88;;;6.43;80.51
40954;BME280;26686;50.130;8.710;2024-02-23T05:41:12;98139.31;;;6.42;81.12
40954;BME280;26686;50.130;8.710;2024-02-23T05:46:13;98142.28;;;6.57;80.86
40954;BME280;26686;50.130;8.710;2024-02-23T05:51:14;98143.72;;;6.69;79.91
40954;BME280;26686;50.130;8.710;2024-02-23T05:56:16;98132.47;;;6.67;80.16
40954;BME280;26686;50.130;8.710;2024-02-23T06:01:18;98135.22;;;6.76;79.70
40954;BME280;26686;50.130;8.710;2024-02-23T06:06:20;98153.72;;;6.76;79.78
40954;BME280;26686;50.130;8.710;2024-02-23T06:11:22;98156.19;;;6.59;79.88
40954;BME280;26686;50.130;8.710;2024-02-23T06:16:23;98169.47;;;6.49;81.44
40954;BME280;26686;50.130;8.710;2024-02-23T06:21:25;98182.34;;;6.62;81.26
40954;BME280;26686;50.130;8.710;2024-02-23T06:26:27;98186.94;;;6.60;82.99
40954;BME280;26686;50.130;8.710;2024-02-23T06:31:28;98188.22;;;6.56;82.99
40954;BME280;26686;50.130;8.710;2024-02-23T06:36:31;98209.66;;;6.71;83.37
40954;BME280;26686;50.130;8.710;2024-02-23T06:41:32;98217.19;;;6.76;82.21
40954;BME280;26686;50.130;8.710;2024-02-23T06:46:34;98229.50;;;6.85;82.71
40954;BME280;26686;50.130;8.710;2024-02-23T06:51:35;98228.28;;;6.79;82.60
40954;BME280;26686;50.130;8.710;2024-02-23T06:56:37;98227.50;;;6.69;82.22
40954;BME280;26686;50.130;8.710;2024-02-23T07:01:48;98219.88;;;6.66;82.27
40954;BME280;26686;50.130;8.710;2024-02-23T07:06:49;98237.13;;;6.70;82.18
40954;BME280;26686;50.130;8.710;2024-02-23T07:11:51;98236.66;;;6.75;81.49
40954;BME280;26686;50.130;8.710;2024-02-23T07:16:54;98242.34;;;6.80;80.36
40954;BME280;26686;50.130;8.710;2024-02-23T07:21:56;98247.03;;;6.86;79.33
40954;BME280;26686;50.130;8.710;2024-02-23T07:26:58;98235.91;;;6.82;78.90
40954;BME280;26686;50.130;8.710;2024-02-23T07:32:06;98222.69;;;6.82;78.90
40954;BME280;26686;50.130;8.710;2024-02-23T07:37:08;98225.81;;;6.96;78.83
40954;BME280;26686;50.130;8.710;2024-02-23T07:42:10;98231.00;;;7.05;77.28
40954;BME280;26686;50.130;8.710;2024-02-23T07:47:12;98233.16;;;7.20;76.65
40954;BME280;26686;50.130;8.710;2024-02-23T07:52:13;98251.81;;;7.36;75.95
40954;BME280;26686;50.130;8.710;2024-02-23T07:57:15;98248.34;;;7.18;74.66
40954;BME280;26686;50.130;8.710;2024-02-23T08:02:18;98258.69;;;7.29;74.23
40954;BME280;26686;50.130;8.710;2024-02-23T08:07:20;98280.03;;;7.46;72.50
40954;BME280;26686;50.130;8.710;2024-02-23T08:12:21;98291.16;;;7.31;72.05
40954;BME280;26686;50.130;8.710;2024-02-23T08:17:23;98273.81;;;7.37;71.84
40954;BME280;26686;50.130;8.710;2024-02-23T08:22:25;98280.03;;;7.46;72.29
40954;BME280;26686;50.130;8.710;2024-02-23T08:27:27;98269.28;;;7.47;70.95
40954;BME280;26686;50.130;8.710;2024-02-23T08:32:30;98255.66;;;7.60;70.75
40954;BME280;26686;50.130;8.710;2024-02-23T08:37:31;98250.25;;;7.43;69.80
40954;BME280;26686;50.130;8.710;2024-02-23T08:42:33;98281.53;;;7.66;70.98
40954;BME280;26686;50.130;8.710;2024-02-23T08:47:34;98296.13;;;7.70;71.20
40954;BME280;26686;50.130;8.710;2024-02-23T08:52:37;98302.78;;;7.74;71.59
40954;BME280;26686;50.130;8.710;2024-02-23T08:57:41;98297.13;;;7.69;71.60
40954;BME280;26686;50.130;8.710;2024-02-23T09:02:43;98295.13;;;7.71;71.66
40954;BME280;26686;50.130;8.710;2024-02-23T09:07:45;98294.09;;;7.64;71.08
40954;BME280;26686;50.130;8.710;2024-02-23T09:12:48;98259.97;;;7.43;71.94
40954;BME280;26686;50.130;8.710;2024-02-23T09:17:49;98294.09;;;7.64;73.03
40954;BME280;26686;50.130;8.710;2024-02-23T09:22:51;98305.13;;;7.59;72.43
40954;BME280;26686;50.130;8.710;2024-02-23T09:27:56;98291.97;;;7.50;72.42
40954;BME280;26686;50.130;8.710;2024-02-23T09:32:58;98289.38;;;7.58;73.75
40954;BME280;26686;50.130;8.710;2024-02-23T09:38:01;98272.31;;;7.70;73.25
40954;BME280;26686;50.130;8.710;2024-02-23T09:43:03;98265.63;;;7.66;72.67
40954;BME280;26686;50.130;8.710;2024-02-23T09:48:10;98281.84;;;7.63;72.73
40954;BME280;26686;50.130;8.710;2024-02-23T09:53:13;98263.78;;;7.85;72.07
40954;BME280;26686;50.130;8.710;2024-02-23T09:58:16;98276.16;;;8.55;70.05
40954;BME280;26686;50.130;8.710;2024-02-23T10:03:20;98272.75;;;8.79;67.75
40954;BME280;26686;50.130;8.710;2024-02-23T10:08:22;98264.66;;;8.80;67.41
40954;BME280;26686;50.130;8.710;2024-02-23T10:13:23;98271.56;;;8.65;67.53
40954;BME280;26686;50.130;8.710;2024-02-23T10:18:26;98275.09;;;8.82;67.42
40954;BME280;26686;50.130;8.710;2024-02-23T10:23:28;98277.31;;;8.95;66.20
40954;BME280;26686;50.130;8.710;2024-02-23T10:28:30;98268.69;;;9.01;64.60
40954;BME280;26686;50.130;8.710;2024-02-23T10:33:32;98258.63;;;8.70;64.13
40954;BME280;26686;50.130;8.710;2024-02-23T10:38:35;98264.16;;;8.85;65.17
40954;BME280;26686;50.130;8.710;2024-02-23T10:43:45;98266.28;;;8.73;66.04
40954;BME280;26686;50.130;8.710;2024-02-23T10:48:48;98274.75;;;8.77;66.99
40954;BME280;26686;50.130;8.710;2024-02-23T10:53:52;98260.63;;;8.76;67.21
40954;BME280;26686;50.130;8.710;2024-02-23T10:58:54;98251.88;;;8.76;67.32
40954;BME280;26686;50.130;8.710;2024-02-23T11:03:55;98261.38;;;8.95;67.74
40954;BME280;26686;50.130;8.710;2024-02-23T11:09:07;98233.38;;;9.33;64.73
40954;BME280;26686;50.130;8.710;2024-02-23T11:14:10;98257.78;;;9.29;64.81
40954;BME280;26686;50.130;8.710;2024-02-23T11:19:11;98240.19;;;9.11;65.56
40954;BME280;26686;50.130;8.710;2024-02-23T11:24:16;98243.78;;;9.02;66.48
40954;BME280;26686;50.130;8.710;2024-02-23T11:29:21;98249.47;;;9.07;66.21
40954;BME280;26686;50.130;8.710;2024-02-23T11:34:22;98261.38;;;8.95;67.17
40954;BME280;26686;50.130;8.710;2024-02-23T11:39:29;98259.72;;;8.94;67.79
40954;BME280;26686;50.130;8.710;2024-02-23T11:44:30;98247.31;;;9.11;68.33
40954;BME280;26686;50.130;8.710;2024-02-23T11:49:32;98256.44;;;9.16;69.03
40954;BME280;26686;50.130;8.710;2024-02-23T11:54:33;98264.50;;;8.90;71.71
40954;BME280;26686;50.130;8.710;2024-02-23T11:59:35;98263.38;;;9.09;73.33
40954;BME280;26686;50.130;8.710;2024-02-23T12:04:37;98256.34;;;12.03;63.88
40954;BME280;26686;50.130;8.710;2024-02-23T12:09:38;98267.41;;;11.54;64.70
40954;BME280;26686;50.130;8.710;2024-02-23T12:14:43;98259.38;;;10.45;67.82
40954;BME280;26686;50.130;8.710;2024-02-23T12:19:45;98259.28;;;9.97;69.92
40954;BME280;26686;50.130;8.710;2024-02-23T12:24:46;98247.81;;;9.80;70.04
40954;BME280;26686;50.130;8.710;2024-02-23T12:29:54;98263.78;;;9.72;71.69
40954;BME280;26686;50.130;8.710;2024-02-23T12:34:56;98266.13;;;9.67;70.35
40954;BME280;26686;50.130;8.710;2024-02-23T12:39:58;98258.47;;;9.55;71.38
40954;BME280;26686;50.130;8.710;2024-02-23T12:44:59;98262.44;;;9.51;71.78
40954;BME280;26686;50.130;8.710;2024-02-23T12:50:05;98243.38;;;9.48;70.06
40954;BME280;26686;50.130;8.710;2024-02-23T12:55:08;98247.16;;;9.45;72.08
40954;BME280;26686;50.130;8.710;2024-02-23T13:00:10;98249.69;;;9.55;74.66
40954;BME280;26686;50.130;8.710;2024-02-23T13:05:12;98235.56;;;9.63;73.90
40954;BME280;26686;50.130;8.710;2024-02-23T13:10:13;98232.41;;;9.59;74.81
40954;BME280;26686;50.130;8.710;2024-02-23T13:15:16;98245.19;;;9.47;73.47
40954;BME280;26686;50.130;8.710;2024-02-23T13:20:22;98249.66;;;9.30;74.58
40954;BME280;26686;50.130;8.710;2024-02-23T13:25:24;98241.34;;;9.17;76.21
40954;BME280;26686;50.130;8.710;2024-02-23T13:30:26;98236.84;;;9.09;76.42
40954;BME280;26686;50.130;8.710;2024-02-23T13:35:27;98233.53;;;9.07;76.53
40954;BME280;26686;50.130;8.710;2024-02-23T13:40:30;98228.91;;;9.17;76.66
40954;BME280;26686;50.130;8.710;2024-02-23T13:45:32;98232.22;;;9.19;74.97
40954;BME280;26686;50.130;8.710;2024-02-23T13:50:34;98237.03;;;11.63;69.67
40954;BME280;26686;50.130;8.710;2024-02-23T13:55:41;98233.84;;;15.07;52.83
40954;BME280;26686;50.130;8.710;2024-02-23T14:00:48;98230.19;;;12.37;60.06
40954;BME280;26686;50.130;8.710;2024-02-23T14:05:49;98227.94;;;11.11;64.32
40954;BME280;26686;50.130;8.710;2024-02-23T14:10:51;98216.81;;;10.45;66.07
40954;BME280;26686;50.130;8.710;2024-02-23T14:15:53;98219.84;;;10.25;67.68
40954;BME280;26686;50.130;8.710;2024-02-23T14:20:55;98232.13;;;10.35;66.70
40954;BME280;26686;50.130;8.710;2024-02-23T14:25:57;98217.44;;;10.55;68.07
40954;BME280;26686;50.130;8.710;2024-02-23T14:30:59;98214.78;;;10.47;65.71
40954;BME280;26686;50.130;8.710;2024-02-23T14:36:02;98201.53;;;10.39;65.72
40954;BME280;26686;50.130;8.710;2024-02-23T14:41:04;98193.56;;;10.31;64.55
40954;BME280;26686;50.130;8.710;2024-02-23T14:46:07;98189.28;;;10.21;63.47
40954;BME280;26686;50.130;8.710;2024-02-23T14:51:10;98202.53;;;10.30;62.10
40954;BME280;26686;50.130;8.710;2024-02-23T14:56:12;98197.88;;;10.23;61.87
40954;BME280;26686;50.130;8.710;2024-02-23T15:01:13;98205.28;;;10.05;61.63
40954;BME280;26686;50.130;8.710;2024-02-23T15:06:16;98190.34;;;9.96;61.38
40954;BME280;26686;50.130;8.710;2024-02-23T15:11:17;98185.66;;;10.85;58.94
40954;BME280;26686;50.130;8.710;2024-02-23T15:16:19;98194.56;;;13.89;50.15
40954;BME280;26686;50.130;8.710;2024-02-23T15:21:21;98169.34;;;11.88;55.19
40954;BME280;26686;50.130;8.710;2024-02-23T15:26:22;98153.25;;;11.05;59.67
40954;BME280;26686;50.130;8.710;2024-02-23T15:31:24;98179.69;;;10.52;61.57
40954;BME280;26686;50.130;8.710;2024-02-23T15:36:25;98172.34;;;10.14;63.50
40954;BME280;26686;50.130;8.710;2024-02-23T15:41:27;98186.97;;;10.10;64.74
40954;BME280;26686;50.130;8.710;2024-02-23T15:46:29;98189.66;;;10.02;64.85
40954;BME280;26686;50.130;8.710;2024-02-23T15:51:33;98189.22;;;9.82;64.21
40954;BME280;26686;50.130;8.710;2024-02-23T15:56:52;98189.38;;;9.80;65.66
40954;BME280;26686;50.130;8.710;2024-02-23T16:01:54;98181.09;;;9.59;65.34
40954;BME280;26686;50.130;8.710;2024-02-23T16:06:57;98195.72;;;9.63;66.10
40954;BME280;26686;50.130;8.710;2024-02-23T16:11:59;98192.56;;;9.51;66.63
40954;BME280;26686;50.130;8.710;2024-02-23T16:17:00;98194.41;;;9.42;67.45
40954;BME280;26686;50.130;8.710;2024-02-23T16:22:04;98187.13;;;9.28;66.93
40954;BME280;26686;50.130;8.710;2024-02-23T16:27:09;98185.44;;;9.27;67.62
40954;BME280;26686;50.130;8.710;2024-02-23T16:32:11;98196.53;;;9.30;67.12
40954;BME280;26686;50.130;8.710;2024-02-23T16:37:17;98212.97;;;9.17;67.43
40954;BME280;26686;50.130;8.710;2024-02-23T16:42:19;98200.38;;;9.11;67.69
40954;BME280;26686;50.130;8.710;2024-02-23T16:47:21;98204.34;;;9.15;67.97
40954;BME280;26686;50.130;8.710;2024-02-23T16:52:22;98206.34;;;9.13;68.06
40954;BME280;26686;50.130;8.710;2024-02-23T16:57:24;98200.34;;;9.03;67.78
40954;BME280;26686;50.130;8.710;2024-02-23T17:02:25;98190.38;;;9.05;68.42
40954;BME280;26686;50.130;8.710;2024-02-23T17:07:28;98174.63;;;8.95;68.24
40954;BME280;26686;50.130;8.710;2024-02-23T17:12:29;98206.81;;;9.00;68.32
40954;BME280;26686;50.130;8.710;2024-02-23T17:17:31;98192.38;;;8.95;67.72
40954;BME280;26686;50.130;8.710;2024-02-23T17:22:36;98170.81;;;8.81;68.99
40954;BME280;26686;50.130;8.710;2024-02-23T17:27:38;98182.41;;;8.89;68.15
40954;BME280;26686;50.130;8.710;2024-02-23T17:32:39;98172.28;;;8.84;68.47
40954;BME280;26686;50.130;8.710;2024-02-23T17:37:41;98205.00;;;9.01;68.48
40954;BME280;26686;50.130;8.710;2024-02-23T17:42:42;98211.63;;;8.97;68.84
40954;BME280;26686;50.130;8.710;2024-02-23T17:47:44;98213.25;;;8.90;68.37
40954;BME280;26686;50.130;8.710;2024-02-23T17:52:47;98212.59;;;8.88;69.07
40954;BME280;26686;50.130;8.710;2024-02-23T17:57:51;98220.88;;;8.93;68.47
40954;BME280;26686;50.130;8.710;2024-02-23T18:02:54;98229.19;;;8.90;68.59
40954;BME280;26686;50.130;8.710;2024-02-23T18:07:56;98232.97;;;8.87;68.42
40954;BME280;26686;50.130;8.710;2024-02-23T18:12:58;98240.78;;;8.89;68.84
40954;BME280;26686;50.130;8.710;2024-02-23T18:17:59;98230.84;;;8.91;68.66
40954;BME280;26686;50.130;8.710;2024-02-23T18:23:01;98240.47;;;8.92;68.40
40954;BME280;26686;50.130;8.710;2024-02-23T18:28:03;98246.78;;;8.91;68.57
40954;BME280;26686;50.130;8.710;2024-02-23T18:33:04;98237.13;;;8.81;70.00
40954;BME280;26686;50.130;8.710;2024-02-23T18:38:08;98227.13;;;8.67;69.15
40954;BME280;26686;50.130;8.710;2024-02-23T18:43:09;98243.25;;;8.82;70.13
40954;BME280;26686;50.130;8.710;2024-02-23T18:48:12;98243.09;;;8.75;69.97
40954;BME280;26686;50.130;8.710;2024-02-23T18:53:13;98247.22;;;8.78;70.93
40954;BME280;26686;50.130;8.710;2024-02-23T18:58:15;98250.41;;;8.81;71.28
40954;BME280;26686;50.130;8.710;2024-02-23T19:03:16;98246.06;;;8.80;70.41
40954;BME280;26686;50.130;8.710;2024-02-23T19:08:19;98248.22;;;8.77;69.74
40954;BME280;26686;50.130;8.710;2024-02-23T19:13:21;98248.03;;;8.70;69.55
40954;BME280;26686;50.130;8.710;2024-02-23T19:18:22;98230.75;;;8.66;70.40
40954;BME280;26686;50.130;8.710;2024-02-23T19:23:25;98246.06;;;8.72;69.57
40954;BME280;26686;50.130;8.710;2024-02-23T19:28:26;98241.75;;;8.71;69.18
40954;BME280;26686;50.130;8.710;2024-02-23T19:33:28;98241.06;;;8.69;69.96
40954;BME280;26686;50.130;8.710;2024-02-23T19:38:32;98239.75;;;8.73;69.16
40954;BME280;26686;50.130;8.710;2024-02-23T19:43:33;98244.06;;;8.74;69.60
40954;BME280;26686;50.130;8.710;2024-02-23T19:48:35;98237.94;;;8.74;69.22
40954;BME280;26686;50.130;8.710;2024-02-23T19:53:37;98227.44;;;8.64;68.71
40954;BME280;26686;50.130;8.710;2024-02-23T19:58:38;98215.19;;;8.63;69.16
40954;BME280;26686;50.130;8.710;2024-02-23T20:03:40;98234.94;;;8.69;68.52
40954;BME280;26686;50.130;8.710;2024-02-23T20:08:41;98218.47;;;8.57;68.88
40954;BME280;26686;50.130;8.710;2024-02-23T20:13:43;98224.47;;;8.59;69.22
40954;BME280;26686;50.130;8.710;2024-02-23T20:18:47;98211.81;;;8.44;68.69
40954;BME280;26686;50.130;8.710;2024-02-23T20:23:53;98235.78;;;8.43;69.33
40954;BME280;26686;50.130;8.710;2024-02-23T20:28:55;98235.28;;;8.39;68.98
40954;BME280;26686;50.130;8.710;2024-02-23T20:33:56;98232.81;;;8.38;69.56
40954;BME280;26686;50.130;8.710;2024-02-23T20:38:58;98237.78;;;8.41;69.80
40954;BME280;26686;50.130;8.710;2024-02-23T20:44:01;98236.63;;;8.43;69.16
40954;BME280;26686;50.130;8.710;2024-02-23T20:49:02;98234.13;;;8.42;68.60
40954;BME280;26686;50.130;8.710;2024-02-23T20:54:05;98230.50;;;8.43;69.24
40954;BME280;26686;50.130;8.710;2024-02-23T20:59:07;98224.06;;;8.45;69.55
40954;BME280;26686;50.130;8.710;2024-02-23T21:04:10;98221.34;;;8.37;68.84
40954;BME280;26686;50.130;8.710;2024-02-23T21:09:12;98225.28;;;8.33;69.91
40954;BME280;26686;50.130;8.710;2024-02-23T21:14:14;98226.97;;;8.34;69.30
40954;BME280;26686;50.130;8.710;2024-02-23T21:19:16;98232.25;;;8.26;69.55
40954;BME280;26686;50.130;8.710;2024-02-23T21:24:18;98230.41;;;8.26;70.23
40954;BME280;26686;50.130;8.710;2024-02-23T21:29:19;98231.22;;;8.27;70.89
40954;BME280;26686;50.130;8.710;2024-02-23T21:34:22;98227.41;;;8.21;71.11
40954;BME280;26686;50.130;8.710;2024-02-23T21:39:23;98237.19;;;8.21;70.61
40954;BME280;26686;50.130;8.710;2024-02-23T21:44:24;98241.03;;;8.26;71.17
40954;BME280;26686;50.130;8.710;2024-02-23T21:49:26;98232.03;;;8.19;71.11
40954;BME280;26686;50.130;8.710;2024-02-23T21:54:29;98229.38;;;8.19;71.30
40954;BME280;26686;50.130;8.710;2024-02-23T21:59:31;98224.53;;;8.06;69.98
40954;BME280;26686;50.130;8.710;2024-02-23T22:04:32;98230.31;;;8.02;70.63
40954;BME280;26686;50.130;8.710;2024-02-23T22:09:35;98239.56;;;8.06;71.07
40954;BME280;26686;50.130;8.710;2024-02-23T22:14:36;98238.75;;;8.05;70.57
40954;BME280;26686;50.130;8.710;2024-02-23T22:19:38;98235.94;;;8.07;71.67
40954;BME280;26686;50.130;8.710;2024-02-23T22:24:42;98232.41;;;7.98;70.39
40954;BME280;26686;50.130;8.710;2024-02-23T22:29:43;98232.41;;;7.98;70.64
40954;BME280;26686;50.130;8.710;2024-02-23T22:34:47;98232.88;;;7.93;71.01
40954;BME280;26686;50.130;8.710;2024-02-23T22:39:49;98224.75;;;7.87;70.92
40954;BME280;26686;50.130;8.710;2024-02-23T22:44:51;98236.66;;;7.91;71.16
40954;BME280;26686;50.130;8.710;2024-02-23T22:49:53;98219.53;;;7.77;71.76
40954;BME280;26686;50.130;8.710;2024-02-23T22:54:54;98236.94;;;7.79;70.87
40954;BME280;26686;50.130;8.710;2024-02-23T22:59:56;98234.91;;;7.73;71.66
40954;BME280;26686;50.130;8.710;2024-02-23T23:04:58;98228.56;;;7.66;70.65
40954;BME280;26686;50.130;8.710;2024-02-23T23:09:59;98237.94;;;7.60;70.89
40954;BME280;26686;50.130;8.710;2024-02-23T23:15:00;98239.78;;;7.60;71.18
40954;BME280;26686;50.130;8.710;2024-02-23T23:20:03;98247.63;;;7.52;71.22
40954;BME280;26686;50.130;8.710;2024-02-23T23:25:08;98276.84;;;7.60;72.25
40954;BME280;26686;50.130;8.710;2024-02-23T23:30:11;98276.84;;;7.60;72.17
40954;BME280;26686;50.130;8.710;2024-02-23T23:35:13;98266.88;;;7.54;71.04
40954;BME280;26686;50.130;8.710;2024-02-23T23:40:14;98280.63;;;7.39;71.06
40954;BME280;26686;50.130;8.710;2024-02-23T23:45:17;98257.28;;;7.35;71.20
40954;BME280;26686;50.130;8.710;2024-02-23T23:50:19;98260.06;;;7.33;71.23
40954;BME280;26686;50.130;8.710;2024-02-23T23:55:23;98262.09;;;7.39;71.43
